sensor_id;sensor_type;location;lat;lon;timestamp;P1;P2;P0
55043;PMS5003;54902;50.420;18.854;2023-09-08T00:00:06;16;16;12
55043;PMS5003;54902;50.420;18.854;2023-09-08T00:00:39;16;16;12
55043;PMS5003;54902;50.420;18.854;2023-09-08T00:01:10;16;16;12
55043;PMS5003;54902;50.420;18.854;2023-09-08T00:01:41;16;16;12
55043;PMS5003;54902;50.420;18.854;2023-09-08T00:02:12;16;16;12
55043;PMS5003;54902;50.420;18.854;2023-09-08T00:02:43;16;16;12
55043;PMS5003;54902;50.420;18.854;2023-09-08T00:03:14;14;14;10
55043;PMS5003;54902;50.420;18.854;2023-09-08T00:03:45;14;14;10
55043;PMS5003;54902;50.420;18.854;2023-09-08T00:04:16;14;14;10
55043;PMS5003;54902;50.420;18.854;2023-09-08T00:04:47;14;14;10
55043;PMS5003;54902;50.420;18.854;2023-09-08T00:05:18;14;14;10
55043;PMS5003;54902;50.420;18.854;2023-09-08T00:05:49;18;18;11
55043;PMS5003;54902;50.420;18.854;2023-09-08T00:06:20;18;18;11
55043;PMS5003;54902;50.420;18.854;2023-09-08T00:06:51;18;18;11
55043;PMS5003;54902;50.420;18.854;2023-09-08T00:07:22;18;18;11
55043;PMS5003;54902;50.420;18.854;2023-09-08T00:07:53;18;18;11
55043;PMS5003;54902;50.420;18.854;2023-09-08T00:08:25;18;18;11
55043;PMS5003;54902;50.420;18.854;2023-09-08T00:08:56;18;18;11
55043;PMS5003;54902;50.420;18.854;2023-09-08T00:09:27;18;18;11
55043;PMS5003;54902;50.420;18.854;2023-09-08T00:09:58;18;18;11
55043;PMS5003;54902;50.420;18.854;2023-09-08T00:10:29;18;18;11
55043;PMS5003;54902;50.420;18.854;2023-09-08T00:11:00;21;21;13
55043;PMS5003;54902;50.420;18.854;2023-09-08T00:11:31;21;21;13
55043;PMS5003;54902;50.420;18.854;2023-09-08T00:12:02;21;21;13
55043;PMS5003;54902;50.420;18.854;2023-09-08T00:12:34;21;21;13
55043;PMS5003;54902;50.420;18.854;2023-09-08T00:13:04;21;21;13
55043;PMS5003;54902;50.420;18.854;2023-09-08T00:13:36;21;21;13
55043;PMS5003;54902;50.420;18.854;2023-09-08T00:14:07;21;21;13
55043;PMS5003;54902;50.420;18.854;2023-09-08T00:14:38;19;19;12
55043;PMS5003;54902;50.420;18.854;2023-09-08T00:15:09;19;19;12
55043;PMS5003;54902;50.420;18.854;2023-09-08T00:15:41;19;19;12
55043;PMS5003;54902;50.420;18.854;2023-09-08T00:16:12;25;25;16
55043;PMS5003;54902;50.420;18.854;2023-09-08T00:16:43;25;25;16
55043;PMS5003;54902;50.420;18.854;2023-09-08T00:17:14;25;25;16
55043;PMS5003;54902;50.420;18.854;2023-09-08T00:17:45;25;25;16
55043;PMS5003;54902;50.420;18.854;2023-09-08T00:18:17;25;25;16
55043;PMS5003;54902;50.420;18.854;2023-09-08T00:18:49;25;25;16
55043;PMS5003;54902;50.420;18.854;2023-09-08T00:19:20;25;25;16
55043;PMS5003;54902;50.420;18.854;2023-09-08T00:19:53;25;25;16
55043;PMS5003;54902;50.420;18.854;2023-09-08T00:20:24;25;25;16
55043;PMS5003;54902;50.420;18.854;2023-09-08T00:20:55;25;25;16
55043;PMS5003;54902;50.420;18.854;2023-09-08T00:21:26;31;31;20
55043;PMS5003;54902;50.420;18.854;2023-09-08T00:21:58;31;31;20
55043;PMS5003;54902;50.420;18.854;2023-09-08T00:22:29;31;31;20
55043;PMS5003;54902;50.420;18.854;2023-09-08T00:23:00;31;31;20
55043;PMS5003;54902;50.420;18.854;2023-09-08T00:23:31;31;31;20
55043;PMS5003;54902;50.420;18.854;2023-09-08T00:24:02;31;31;20
55043;PMS5003;54902;50.420;18.854;2023-09-08T00:24:34;31;31;20
55043;PMS5003;54902;50.420;18.854;2023-09-08T00:25:05;31;31;20
55043;PMS5003;54902;50.420;18.854;2023-09-08T00:25:37;31;31;20
55043;PMS5003;54902;50.420;18.854;2023-09-08T00:26:08;31;31;20
55043;PMS5003;54902;50.420;18.854;2023-09-08T00:26:39;31;31;20
55043;PMS5003;54902;50.420;18.854;2023-09-08T00:27:10;31;31;20
55043;PMS5003;54902;50.420;18.854;2023-09-08T00:27:41;31;31;20
55043;PMS5003;54902;50.420;18.854;2023-09-08T00:28:12;31;31;20
55043;PMS5003;54902;50.420;18.854;2023-09-08T00:28:43;31;31;20
55043;PMS5003;54902;50.420;18.854;2023-09-08T00:29:14;31;31;20
55043;PMS5003;54902;50.420;18.854;2023-09-08T00:29:45;31;31;20
55043;PMS5003;54902;50.420;18.854;2023-09-08T00:30:16;31;31;20
55043;PMS5003;54902;50.420;18.854;2023-09-08T00:30:47;31;31;20
55043;PMS5003;54902;50.420;18.854;2023-09-08T00:31:18;31;31;20
55043;PMS5003;54902;50.420;18.854;2023-09-08T00:31:49;31;31;20
55043;PMS5003;54902;50.420;18.854;2023-09-08T00:32:20;31;31;20
55043;PMS5003;54902;50.420;18.854;2023-09-08T00:32:51;31;31;20
55043;PMS5003;54902;50.420;18.854;2023-09-08T00:33:22;31;31;20
55043;PMS5003;54902;50.420;18.854;2023-09-08T00:33:54;31;31;20
55043;PMS5003;54902;50.420;18.854;2023-09-08T00:34:25;31;31;20
55043;PMS5003;54902;50.420;18.854;2023-09-08T00:34:56;31;31;20
55043;PMS5003;54902;50.420;18.854;2023-09-08T00:35:27;31;31;20
55043;PMS5003;54902;50.420;18.854;2023-09-08T00:35:58;31;31;20
55043;PMS5003;54902;50.420;18.854;2023-09-08T00:36:29;31;31;20
55043;PMS5003;54902;50.420;18.854;2023-09-08T00:37:00;31;31;20
55043;PMS5003;54902;50.420;18.854;2023-09-08T00:37:37;31;31;20
55043;PMS5003;54902;50.420;18.854;2023-09-08T00:38:09;31;31;20
55043;PMS5003;54902;50.420;18.854;2023-09-08T00:38:40;31;31;20
55043;PMS5003;54902;50.420;18.854;2023-09-08T00:39:12;31;31;20
55043;PMS5003;54902;50.420;18.854;2023-09-08T00:39:43;31;31;20
55043;PMS5003;54902;50.420;18.854;2023-09-08T00:40:14;31;31;20
55043;PMS5003;54902;50.420;18.854;2023-09-08T00:40:45;31;31;20
55043;PMS5003;54902;50.420;18.854;2023-09-08T00:41:16;31;31;20
55043;PMS5003;54902;50.420;18.854;2023-09-08T00:41:47;31;31;20
55043;PMS5003;54902;50.420;18.854;2023-09-08T00:42:18;11;11;8
55043;PMS5003;54902;50.420;18.854;2023-09-08T00:42:49;11;11;8
55043;PMS5003;54902;50.420;18.854;2023-09-08T00:43:20;11;11;8
55043;PMS5003;54902;50.420;18.854;2023-09-08T00:43:51;11;11;8
55043;PMS5003;54902;50.420;18.854;2023-09-08T00:44:22;11;11;8
55043;PMS5003;54902;50.420;18.854;2023-09-08T00:44:53;11;11;8
55043;PMS5003;54902;50.420;18.854;2023-09-08T00:45:26;11;11;8
55043;PMS5003;54902;50.420;18.854;2023-09-08T00:46:00;11;11;8
55043;PMS5003;54902;50.420;18.854;2023-09-08T00:46:33;11;11;8
55043;PMS5003;54902;50.420;18.854;2023-09-08T00:47:04;11;11;8
55043;PMS5003;54902;50.420;18.854;2023-09-08T00:47:35;19;19;13
55043;PMS5003;54902;50.420;18.854;2023-09-08T00:48:07;19;19;13
55043;PMS5003;54902;50.420;18.854;2023-09-08T00:48:38;19;19;13
55043;PMS5003;54902;50.420;18.854;2023-09-08T00:49:09;19;19;13
55043;PMS5003;54902;50.420;18.854;2023-09-08T00:49:42;19;19;13
55043;PMS5003;54902;50.420;18.854;2023-09-08T00:50:13;19;19;13
55043;PMS5003;54902;50.420;18.854;2023-09-08T00:50:45;19;19;13
55043;PMS5003;54902;50.420;18.854;2023-09-08T00:51:17;19;19;13
55043;PMS5003;54902;50.420;18.854;2023-09-08T00:51:48;19;19;13
55043;PMS5003;54902;50.420;18.854;2023-09-08T00:52:19;19;19;13
55043;PMS5003;54902;50.420;18.854;2023-09-08T00:52:50;19;19;13
55043;PMS5003;54902;50.420;18.854;2023-09-08T00:53:21;19;19;13
55043;PMS5003;54902;50.420;18.854;2023-09-08T00:53:53;19;19;13
55043;PMS5003;54902;50.420;18.854;2023-09-08T00:54:24;19;19;13
55043;PMS5003;54902;50.420;18.854;2023-09-08T00:54:55;19;19;13
55043;PMS5003;54902;50.420;18.854;2023-09-08T00:55:26;19;19;13
55043;PMS5003;54902;50.420;18.854;2023-09-08T00:55:58;19;19;13
55043;PMS5003;54902;50.420;18.854;2023-09-08T00:56:30;19;19;13
55043;PMS5003;54902;50.420;18.854;2023-09-08T00:57:02;19;19;13
55043;PMS5003;54902;50.420;18.854;2023-09-08T00:57:36;19;19;13
55043;PMS5003;54902;50.420;18.854;2023-09-08T00:58:07;19;19;13
55043;PMS5003;54902;50.420;18.854;2023-09-08T00:58:38;19;19;13
55043;PMS5003;54902;50.420;18.854;2023-09-08T00:59:09;19;19;13
55043;PMS5003;54902;50.420;18.854;2023-09-08T00:59:41;19;19;13
55043;PMS5003;54902;50.420;18.854;2023-09-08T01:00:13;19;19;13
55043;PMS5003;54902;50.420;18.854;2023-09-08T01:00:47;19;19;13
55043;PMS5003;54902;50.420;18.854;2023-09-08T01:01:18;19;19;13
55043;PMS5003;54902;50.420;18.854;2023-09-08T01:01:50;19;19;13
55043;PMS5003;54902;50.420;18.854;2023-09-08T01:02:21;19;19;13
55043;PMS5003;54902;50.420;18.854;2023-09-08T01:02:52;19;19;13
55043;PMS5003;54902;50.420;18.854;2023-09-08T01:03:24;19;19;13
55043;PMS5003;54902;50.420;18.854;2023-09-08T01:03:55;19;19;13
55043;PMS5003;54902;50.420;18.854;2023-09-08T01:04:26;19;19;13
55043;PMS5003;54902;50.420;18.854;2023-09-08T01:04:58;17;14;10
55043;PMS5003;54902;50.420;18.854;2023-09-08T01:05:33;17;14;10
55043;PMS5003;54902;50.420;18.854;2023-09-08T01:06:04;17;14;10
55043;PMS5003;54902;50.420;18.854;2023-09-08T01:06:36;17;14;10
55043;PMS5003;54902;50.420;18.854;2023-09-08T01:07:08;17;14;10
55043;PMS5003;54902;50.420;18.854;2023-09-08T01:07:40;17;14;10
55043;PMS5003;54902;50.420;18.854;2023-09-08T01:08:12;17;14;10
55043;PMS5003;54902;50.420;18.854;2023-09-08T01:08:44;20;19;14
55043;PMS5003;54902;50.420;18.854;2023-09-08T01:09:16;20;19;14
55043;PMS5003;54902;50.420;18.854;2023-09-08T01:09:48;20;19;14
55043;PMS5003;54902;50.420;18.854;2023-09-08T01:10:20;20;19;14
55043;PMS5003;54902;50.420;18.854;2023-09-08T01:10:52;20;19;14
55043;PMS5003;54902;50.420;18.854;2023-09-08T01:11:23;20;19;14
55043;PMS5003;54902;50.420;18.854;2023-09-08T01:11:54;20;19;14
55043;PMS5003;54902;50.420;18.854;2023-09-08T01:12:30;20;19;14
55043;PMS5003;54902;50.420;18.854;2023-09-08T01:13:02;20;19;14
55043;PMS5003;54902;50.420;18.854;2023-09-08T01:13:33;20;19;14
55043;PMS5003;54902;50.420;18.854;2023-09-08T01:14:04;22;21;16
55043;PMS5003;54902;50.420;18.854;2023-09-08T01:14:35;22;21;16
55043;PMS5003;54902;50.420;18.854;2023-09-08T01:15:07;22;21;16
55043;PMS5003;54902;50.420;18.854;2023-09-08T01:15:38;22;21;16
55043;PMS5003;54902;50.420;18.854;2023-09-08T01:16:09;22;21;16
55043;PMS5003;54902;50.420;18.854;2023-09-08T01:16:40;22;21;16
55043;PMS5003;54902;50.420;18.854;2023-09-08T01:17:12;22;21;16
55043;PMS5003;54902;50.420;18.854;2023-09-08T01:17:43;18;18;13
55043;PMS5003;54902;50.420;18.854;2023-09-08T01:18:14;18;18;13
55043;PMS5003;54902;50.420;18.854;2023-09-08T01:18:45;18;18;13
55043;PMS5003;54902;50.420;18.854;2023-09-08T01:19:18;14;14;10
55043;PMS5003;54902;50.420;18.854;2023-09-08T01:19:52;14;14;10
55043;PMS5003;54902;50.420;18.854;2023-09-08T01:20:29;14;14;10
55043;PMS5003;54902;50.420;18.854;2023-09-08T01:21:11;14;14;10
55043;PMS5003;54902;50.420;18.854;2023-09-08T01:21:58;14;14;10
55043;PMS5003;54902;50.420;18.854;2023-09-08T01:22:44;14;14;10
55043;PMS5003;54902;50.420;18.854;2023-09-08T01:23:21;14;14;10
55043;PMS5003;54902;50.420;18.854;2023-09-08T01:24:01;14;14;10
55043;PMS5003;54902;50.420;18.854;2023-09-08T01:24:57;14;14;10
55043;PMS5003;54902;50.420;18.854;2023-09-08T01:25:24;14;14;10
55043;PMS5003;54902;50.420;18.854;2023-09-08T01:25:57;18;18;13
55043;PMS5003;54902;50.420;18.854;2023-09-08T01:26:34;18;18;13
55043;PMS5003;54902;50.420;18.854;2023-09-08T01:27:07;18;18;13
55043;PMS5003;54902;50.420;18.854;2023-09-08T01:27:47;18;18;13
55043;PMS5003;54902;50.420;18.854;2023-09-08T01:28:21;18;18;13
55043;PMS5003;54902;50.420;18.854;2023-09-08T01:28:54;18;18;13
55043;PMS5003;54902;50.420;18.854;2023-09-08T01:29:26;18;18;13
55043;PMS5003;54902;50.420;18.854;2023-09-08T01:30:01;18;18;13
55043;PMS5003;54902;50.420;18.854;2023-09-08T01:30:34;18;18;13
55043;PMS5003;54902;50.420;18.854;2023-09-08T01:31:07;18;18;13
55043;PMS5003;54902;50.420;18.854;2023-09-08T01:31:38;12;12;8
55043;PMS5003;54902;50.420;18.854;2023-09-08T01:32:09;12;12;8
55043;PMS5003;54902;50.420;18.854;2023-09-08T01:32:41;12;12;8
55043;PMS5003;54902;50.420;18.854;2023-09-08T01:33:14;12;12;8
55043;PMS5003;54902;50.420;18.854;2023-09-08T01:33:46;12;12;8
55043;PMS5003;54902;50.420;18.854;2023-09-08T01:34:18;12;12;8
55043;PMS5003;54902;50.420;18.854;2023-09-08T01:34:50;12;12;8
55043;PMS5003;54902;50.420;18.854;2023-09-08T01:35:22;12;12;8
55043;PMS5003;54902;50.420;18.854;2023-09-08T01:35:54;12;12;8
55043;PMS5003;54902;50.420;18.854;2023-09-08T01:36:28;12;12;8
55043;PMS5003;54902;50.420;18.854;2023-09-08T01:36:59;21;21;13
55043;PMS5003;54902;50.420;18.854;2023-09-08T01:37:34;21;21;13
55043;PMS5003;54902;50.420;18.854;2023-09-08T01:38:05;21;21;13
55043;PMS5003;54902;50.420;18.854;2023-09-08T01:38:36;21;21;13
55043;PMS5003;54902;50.420;18.854;2023-09-08T01:39:08;21;21;13
55043;PMS5003;54902;50.420;18.854;2023-09-08T01:39:39;21;21;13
55043;PMS5003;54902;50.420;18.854;2023-09-08T01:40:10;21;21;13
55043;PMS5003;54902;50.420;18.854;2023-09-08T01:40:41;21;21;13
55043;PMS5003;54902;50.420;18.854;2023-09-08T01:41:12;21;21;13
55043;PMS5003;54902;50.420;18.854;2023-09-08T01:41:43;21;21;13
55043;PMS5003;54902;50.420;18.854;2023-09-08T01:42:14;21;21;13
55043;PMS5003;54902;50.420;18.854;2023-09-08T01:42:45;21;21;13
55043;PMS5003;54902;50.420;18.854;2023-09-08T01:43:17;21;21;13
55043;PMS5003;54902;50.420;18.854;2023-09-08T01:43:48;21;21;13
55043;PMS5003;54902;50.420;18.854;2023-09-08T01:44:19;21;21;13
55043;PMS5003;54902;50.420;18.854;2023-09-08T01:44:50;21;21;13
55043;PMS5003;54902;50.420;18.854;2023-09-08T01:45:21;21;21;13
55043;PMS5003;54902;50.420;18.854;2023-09-08T01:45:52;21;21;13
55043;PMS5003;54902;50.420;18.854;2023-09-08T01:46:23;21;21;13
55043;PMS5003;54902;50.420;18.854;2023-09-08T01:46:54;21;21;13
55043;PMS5003;54902;50.420;18.854;2023-09-08T01:47:28;21;21;13
55043;PMS5003;54902;50.420;18.854;2023-09-08T01:48:00;21;21;13
55043;PMS5003;54902;50.420;18.854;2023-09-08T01:48:31;21;21;13
55043;PMS5003;54902;50.420;18.854;2023-09-08T01:49:02;21;21;13
55043;PMS5003;54902;50.420;18.854;2023-09-08T01:49:33;21;21;13
55043;PMS5003;54902;50.420;18.854;2023-09-08T01:50:05;21;21;13
55043;PMS5003;54902;50.420;18.854;2023-09-08T01:50:36;21;21;13
55043;PMS5003;54902;50.420;18.854;2023-09-08T01:51:07;21;21;13
55043;PMS5003;54902;50.420;18.854;2023-09-08T01:51:38;21;21;13
55043;PMS5003;54902;50.420;18.854;2023-09-08T01:52:09;21;21;13
55043;PMS5003;54902;50.420;18.854;2023-09-08T01:52:40;21;21;13
55043;PMS5003;54902;50.420;18.854;2023-09-08T01:53:11;21;21;13
55043;PMS5003;54902;50.420;18.854;2023-09-08T01:53:42;21;21;13
55043;PMS5003;54902;50.420;18.854;2023-09-08T01:54:13;21;21;13
55043;PMS5003;54902;50.420;18.854;2023-09-08T01:54:44;21;21;13
55043;PMS5003;54902;50.420;18.854;2023-09-08T01:55:15;21;21;13
55043;PMS5003;54902;50.420;18.854;2023-09-08T01:55:51;21;21;13
55043;PMS5003;54902;50.420;18.854;2023-09-08T01:56:21;21;21;13
55043;PMS5003;54902;50.420;18.854;2023-09-08T01:56:53;21;21;13
55043;PMS5003;54902;50.420;18.854;2023-09-08T01:57:24;21;21;13
55043;PMS5003;54902;50.420;18.854;2023-09-08T01:57:55;21;21;13
55043;PMS5003;54902;50.420;18.854;2023-09-08T01:58:26;21;21;13
55043;PMS5003;54902;50.420;18.854;2023-09-08T01:58:57;21;21;13
55043;PMS5003;54902;50.420;18.854;2023-09-08T01:59:30;21;21;13
55043;PMS5003;54902;50.420;18.854;2023-09-08T02:00:04;21;21;13
55043;PMS5003;54902;50.420;18.854;2023-09-08T02:00:35;21;21;13
55043;PMS5003;54902;50.420;18.854;2023-09-08T02:01:06;21;21;13
55043;PMS5003;54902;50.420;18.854;2023-09-08T02:01:38;21;21;13
55043;PMS5003;54902;50.420;18.854;2023-09-08T02:02:10;21;21;13
55043;PMS5003;54902;50.420;18.854;2023-09-08T02:02:41;21;21;13
55043;PMS5003;54902;50.420;18.854;2023-09-08T02:03:12;21;21;13
55043;PMS5003;54902;50.420;18.854;2023-09-08T02:03:43;21;21;13
55043;PMS5003;54902;50.420;18.854;2023-09-08T02:04:14;21;21;13
55043;PMS5003;54902;50.420;18.854;2023-09-08T02:04:46;21;21;13
55043;PMS5003;54902;50.420;18.854;2023-09-08T02:05:18;21;21;13
55043;PMS5003;54902;50.420;18.854;2023-09-08T02:05:50;21;21;13
55043;PMS5003;54902;50.420;18.854;2023-09-08T02:06:21;21;21;13
55043;PMS5003;54902;50.420;18.854;2023-09-08T02:06:52;21;21;13
55043;PMS5003;54902;50.420;18.854;2023-09-08T02:07:23;21;21;13
55043;PMS5003;54902;50.420;18.854;2023-09-08T02:07:54;21;21;13
55043;PMS5003;54902;50.420;18.854;2023-09-08T02:08:26;21;21;13
55043;PMS5003;54902;50.420;18.854;2023-09-08T02:08:58;21;21;13
55043;PMS5003;54902;50.420;18.854;2023-09-08T02:09:35;21;21;13
55043;PMS5003;54902;50.420;18.854;2023-09-08T02:10:07;21;21;13
55043;PMS5003;54902;50.420;18.854;2023-09-08T02:10:41;21;21;13
55043;PMS5003;54902;50.420;18.854;2023-09-08T02:11:12;21;21;13
55043;PMS5003;54902;50.420;18.854;2023-09-08T02:11:43;21;21;13
55043;PMS5003;54902;50.420;18.854;2023-09-08T02:12:14;21;21;13
55043;PMS5003;54902;50.420;18.854;2023-09-08T02:12:45;21;21;13
55043;PMS5003;54902;50.420;18.854;2023-09-08T02:13:16;21;21;13
55043;PMS5003;54902;50.420;18.854;2023-09-08T02:13:47;21;21;13
55043;PMS5003;54902;50.420;18.854;2023-09-08T02:14:18;21;21;13
55043;PMS5003;54902;50.420;18.854;2023-09-08T02:14:49;21;21;13
55043;PMS5003;54902;50.420;18.854;2023-09-08T02:15:22;21;21;13
55043;PMS5003;54902;50.420;18.854;2023-09-08T02:15:53;21;21;13
55043;PMS5003;54902;50.420;18.854;2023-09-08T02:16:24;21;21;13
55043;PMS5003;54902;50.420;18.854;2023-09-08T02:16:55;21;21;13
55043;PMS5003;54902;50.420;18.854;2023-09-08T02:17:27;21;21;13
55043;PMS5003;54902;50.420;18.854;2023-09-08T02:17:58;21;21;13
55043;PMS5003;54902;50.420;18.854;2023-09-08T02:18:29;21;21;13
55043;PMS5003;54902;50.420;18.854;2023-09-08T02:19:00;13;13;10
55043;PMS5003;54902;50.420;18.854;2023-09-08T02:19:31;13;13;10
55043;PMS5003;54902;50.420;18.854;2023-09-08T02:20:02;13;13;10
55043;PMS5003;54902;50.420;18.854;2023-09-08T02:20:33;13;13;10
55043;PMS5003;54902;50.420;18.854;2023-09-08T02:21:05;13;13;10
55043;PMS5003;54902;50.420;18.854;2023-09-08T02:21:38;13;13;10
55043;PMS5003;54902;50.420;18.854;2023-09-08T02:22:09;13;13;10
55043;PMS5003;54902;50.420;18.854;2023-09-08T02:22:40;13;13;10
55043;PMS5003;54902;50.420;18.854;2023-09-08T02:23:12;13;13;10
55043;PMS5003;54902;50.420;18.854;2023-09-08T02:23:43;17;17;14
55043;PMS5003;54902;50.420;18.854;2023-09-08T02:24:13;8;8;6
55043;PMS5003;54902;50.420;18.854;2023-09-08T02:24:45;8;8;6
55043;PMS5003;54902;50.420;18.854;2023-09-08T02:25:15;8;8;6
55043;PMS5003;54902;50.420;18.854;2023-09-08T02:25:48;8;8;6
55043;PMS5003;54902;50.420;18.854;2023-09-08T02:26:19;8;8;6
55043;PMS5003;54902;50.420;18.854;2023-09-08T02:26:50;8;8;6
55043;PMS5003;54902;50.420;18.854;2023-09-08T02:27:21;8;8;6
55043;PMS5003;54902;50.420;18.854;2023-09-08T02:27:52;8;8;6
55043;PMS5003;54902;50.420;18.854;2023-09-08T02:28:23;8;8;6
55043;PMS5003;54902;50.420;18.854;2023-09-08T02:28:55;8;8;6
55043;PMS5003;54902;50.420;18.854;2023-09-08T02:29:26;12;12;9
55043;PMS5003;54902;50.420;18.854;2023-09-08T02:29:57;12;12;9
55043;PMS5003;54902;50.420;18.854;2023-09-08T02:30:28;12;12;9
55043;PMS5003;54902;50.420;18.854;2023-09-08T02:30:59;12;12;9
55043;PMS5003;54902;50.420;18.854;2023-09-08T02:31:30;12;12;9
55043;PMS5003;54902;50.420;18.854;2023-09-08T02:32:01;12;12;9
55043;PMS5003;54902;50.420;18.854;2023-09-08T02:32:32;12;12;9
55043;PMS5003;54902;50.420;18.854;2023-09-08T02:33:04;12;12;9
55043;PMS5003;54902;50.420;18.854;2023-09-08T02:33:35;12;12;9
55043;PMS5003;54902;50.420;18.854;2023-09-08T02:34:06;12;12;9
55043;PMS5003;54902;50.420;18.854;2023-09-08T02:34:37;19;18;11
55043;PMS5003;54902;50.420;18.854;2023-09-08T02:35:08;19;18;11
55043;PMS5003;54902;50.420;18.854;2023-09-08T02:35:40;19;18;11
55043;PMS5003;54902;50.420;18.854;2023-09-08T02:36:11;19;18;11
55043;PMS5003;54902;50.420;18.854;2023-09-08T02:36:42;19;18;11
55043;PMS5003;54902;50.420;18.854;2023-09-08T02:37:13;19;18;11
55043;PMS5003;54902;50.420;18.854;2023-09-08T02:37:44;19;18;11
55043;PMS5003;54902;50.420;18.854;2023-09-08T02:38:15;19;18;11
55043;PMS5003;54902;50.420;18.854;2023-09-08T02:38:46;19;18;11
55043;PMS5003;54902;50.420;18.854;2023-09-08T02:39:17;19;18;11
55043;PMS5003;54902;50.420;18.854;2023-09-08T02:39:48;27;25;18
55043;PMS5003;54902;50.420;18.854;2023-09-08T02:40:19;27;25;18
55043;PMS5003;54902;50.420;18.854;2023-09-08T02:40:51;27;25;18
55043;PMS5003;54902;50.420;18.854;2023-09-08T02:41:23;27;25;18
55043;PMS5003;54902;50.420;18.854;2023-09-08T02:41:54;27;25;18
55043;PMS5003;54902;50.420;18.854;2023-09-08T02:42:25;27;25;18
55043;PMS5003;54902;50.420;18.854;2023-09-08T02:42:56;27;25;18
55043;PMS5003;54902;50.420;18.854;2023-09-08T02:43:27;27;25;18
55043;PMS5003;54902;50.420;18.854;2023-09-08T02:43:58;27;25;18
55043;PMS5003;54902;50.420;18.854;2023-09-08T02:44:29;27;25;18
55043;PMS5003;54902;50.420;18.854;2023-09-08T02:45:00;27;25;18
55043;PMS5003;54902;50.420;18.854;2023-09-08T02:45:34;27;25;18
55043;PMS5003;54902;50.420;18.854;2023-09-08T02:46:05;27;25;18
55043;PMS5003;54902;50.420;18.854;2023-09-08T02:46:36;27;25;18
55043;PMS5003;54902;50.420;18.854;2023-09-08T02:47:07;27;25;18
55043;PMS5003;54902;50.420;18.854;2023-09-08T02:47:38;27;25;18
55043;PMS5003;54902;50.420;18.854;2023-09-08T02:48:09;27;25;18
55043;PMS5003;54902;50.420;18.854;2023-09-08T02:48:40;27;25;18
55043;PMS5003;54902;50.420;18.854;2023-09-08T02:49:12;27;25;18
55043;PMS5003;54902;50.420;18.854;2023-09-08T02:49:42;27;25;18
55043;PMS5003;54902;50.420;18.854;2023-09-08T02:50:14;27;25;18
55043;PMS5003;54902;50.420;18.854;2023-09-08T02:50:45;18;18;14
55043;PMS5003;54902;50.420;18.854;2023-09-08T02:51:16;18;18;14
55043;PMS5003;54902;50.420;18.854;2023-09-08T02:51:47;18;18;14
55043;PMS5003;54902;50.420;18.854;2023-09-08T02:52:18;18;18;14
55043;PMS5003;54902;50.420;18.854;2023-09-08T02:52:50;18;18;14
55043;PMS5003;54902;50.420;18.854;2023-09-08T02:53:21;18;18;14
55043;PMS5003;54902;50.420;18.854;2023-09-08T02:53:53;18;18;14
55043;PMS5003;54902;50.420;18.854;2023-09-08T02:54:24;18;18;14
55043;PMS5003;54902;50.420;18.854;2023-09-08T02:54:55;18;18;14
55043;PMS5003;54902;50.420;18.854;2023-09-08T02:55:26;25;25;19
55043;PMS5003;54902;50.420;18.854;2023-09-08T02:55:58;25;25;19
55043;PMS5003;54902;50.420;18.854;2023-09-08T02:56:30;25;25;19
55043;PMS5003;54902;50.420;18.854;2023-09-08T02:57:01;25;25;19
55043;PMS5003;54902;50.420;18.854;2023-09-08T02:57:32;25;25;19
55043;PMS5003;54902;50.420;18.854;2023-09-08T02:58:03;24;22;16
55043;PMS5003;54902;50.420;18.854;2023-09-08T02:59:11;24;22;16
55043;PMS5003;54902;50.420;18.854;2023-09-08T02:59:42;24;22;16
55043;PMS5003;54902;50.420;18.854;2023-09-08T03:00:13;24;22;16
55043;PMS5003;54902;50.420;18.854;2023-09-08T03:00:45;25;25;17
55043;PMS5003;54902;50.420;18.854;2023-09-08T03:01:16;25;25;17
55043;PMS5003;54902;50.420;18.854;2023-09-08T03:01:54;25;25;17
55043;PMS5003;54902;50.420;18.854;2023-09-08T03:02:25;25;25;17
55043;PMS5003;54902;50.420;18.854;2023-09-08T03:02:56;24;24;19
55043;PMS5003;54902;50.420;18.854;2023-09-08T03:03:27;24;24;19
55043;PMS5003;54902;50.420;18.854;2023-09-08T03:03:58;24;24;19
55043;PMS5003;54902;50.420;18.854;2023-09-08T03:04:29;24;24;19
55043;PMS5003;54902;50.420;18.854;2023-09-08T03:05:04;24;24;19
55043;PMS5003;54902;50.420;18.854;2023-09-08T03:05:35;24;24;19
55043;PMS5003;54902;50.420;18.854;2023-09-08T03:06:08;26;26;21
55043;PMS5003;54902;50.420;18.854;2023-09-08T03:06:39;26;26;21
55043;PMS5003;54902;50.420;18.854;2023-09-08T03:07:10;26;26;21
55043;PMS5003;54902;50.420;18.854;2023-09-08T03:07:41;26;26;21
55043;PMS5003;54902;50.420;18.854;2023-09-08T03:08:12;26;26;21
55043;PMS5003;54902;50.420;18.854;2023-09-08T03:08:43;26;26;21
55043;PMS5003;54902;50.420;18.854;2023-09-08T03:09:14;26;26;21
55043;PMS5003;54902;50.420;18.854;2023-09-08T03:09:45;27;27;21
55043;PMS5003;54902;50.420;18.854;2023-09-08T03:10:17;27;27;21
55043;PMS5003;54902;50.420;18.854;2023-09-08T03:10:48;27;27;21
55043;PMS5003;54902;50.420;18.854;2023-09-08T03:11:19;23;22;15
55043;PMS5003;54902;50.420;18.854;2023-09-08T03:11:50;23;22;15
55043;PMS5003;54902;50.420;18.854;2023-09-08T03:12:21;23;22;15
55043;PMS5003;54902;50.420;18.854;2023-09-08T03:12:52;23;22;15
55043;PMS5003;54902;50.420;18.854;2023-09-08T03:13:23;23;22;15
55043;PMS5003;54902;50.420;18.854;2023-09-08T03:13:56;23;22;15
55043;PMS5003;54902;50.420;18.854;2023-09-08T03:14:27;23;22;15
55043;PMS5003;54902;50.420;18.854;2023-09-08T03:14:58;26;24;16
55043;PMS5003;54902;50.420;18.854;2023-09-08T03:15:29;26;24;16
55043;PMS5003;54902;50.420;18.854;2023-09-08T03:16:04;26;24;16
55043;PMS5003;54902;50.420;18.854;2023-09-08T03:16:36;19;17;9
55043;PMS5003;54902;50.420;18.854;2023-09-08T03:17:07;19;17;9
55043;PMS5003;54902;50.420;18.854;2023-09-08T03:17:38;19;17;9
55043;PMS5003;54902;50.420;18.854;2023-09-08T03:18:09;19;17;9
55043;PMS5003;54902;50.420;18.854;2023-09-08T03:18:40;19;17;9
55043;PMS5003;54902;50.420;18.854;2023-09-08T03:19:12;19;17;9
55043;PMS5003;54902;50.420;18.854;2023-09-08T03:19:44;19;17;9
55043;PMS5003;54902;50.420;18.854;2023-09-08T03:20:16;19;17;9
55043;PMS5003;54902;50.420;18.854;2023-09-08T03:20:48;19;17;9
55043;PMS5003;54902;50.420;18.854;2023-09-08T03:21:20;19;17;9
55043;PMS5003;54902;50.420;18.854;2023-09-08T03:21:51;24;21;12